sensor_id;sensor_type;location;lat;lon;timestamp;temperature;humidity
7461;DHT22;6757;52.258;12.840;2024-02-21T00:02:12;7.50;99.90
7461;DHT22;6757;52.258;12.840;2024-02-21T00:04:43;7.50;99.90
7461;DHT22;6757;52.258;12.840;2024-02-21T00:07:10;7.50;99.90
7461;DHT22;6757;52.258;12.840;2024-02-21T00:09:38;7.50;99.90
7461;DHT22;6757;52.258;12.840;2024-02-21T00:12:06;7.60;99.90
7461;DHT22;6757;52.258;12.840;2024-02-21T00:14:33;7.50;99.90
7461;DHT22;6757;52.258;12.840;2024-02-21T00:17:02;7.50;99.90
7461;DHT22;6757;52.258;12.840;2024-02-21T00:19:29;7.50;99.90
7461;DHT22;6757;52.258;12.840;2024-02-21T00:21:56;7.50;99.90
7461;DHT22;6757;52.258;12.840;2024-02-21T00:24:23;7.50;99.90
7461;DHT22;6757;52.258;12.840;2024-02-21T00:26:51;7.60;99.90
7461;DHT22;6757;52.258;12.840;2024-02-21T00:29:19;7.20;99.90
7461;DHT22;6757;52.258;12.840;2024-02-21T00:31:49;7.70;99.90
7461;DHT22;6757;52.258;12.840;2024-02-21T00:34:17;7.60;99.90
7461;DHT22;6757;52.258;12.840;2024-02-21T00:36:44;7.50;99.90
7461;DHT22;6757;52.258;12.840;2024-02-21T00:39:12;7.60;99.90
7461;DHT22;6757;52.258;12.840;2024-02-21T00:41:42;7.60;99.90
7461;DHT22;6757;52.258;12.840;2024-02-21T00:44:11;7.30;99.90
7461;DHT22;6757;52.258;12.840;2024-02-21T00:46:37;7.60;99.90
7461;DHT22;6757;52.258;12.840;2024-02-21T00:49:11;7.60;99.90
7461;DHT22;6757;52.258;12.840;2024-02-21T00:51:38;7.60;99.90
7461;DHT22;6757;52.258;12.840;2024-02-21T00:54:05;7.60;99.90
7461;DHT22;6757;52.258;12.840;2024-02-21T00:56:33;7.50;99.90
7461;DHT22;6757;52.258;12.840;2024-02-21T00:59:01;7.60;99.90
7461;DHT22;6757;52.258;12.840;2024-02-21T01:01:30;7.50;99.90
7461;DHT22;6757;52.258;12.840;2024-02-21T01:03:57;7.60;99.90
7461;DHT22;6757;52.258;12.840;2024-02-21T01:06:24;7.50;99.90
7461;DHT22;6757;52.258;12.840;2024-02-21T01:08:51;7.50;99.90
7461;DHT22;6757;52.258;12.840;2024-02-21T01:11:18;7.60;99.90
7461;DHT22;6757;52.258;12.840;2024-02-21T01:13:45;7.50;99.90
7461;DHT22;6757;52.258;12.840;2024-02-21T01:16:13;7.90;99.90
7461;DHT22;6757;52.258;12.840;2024-02-21T01:18:43;7.50;99.90
7461;DHT22;6757;52.258;12.840;2024-02-21T01:21:10;7.50;99.90
7461;DHT22;6757;52.258;12.840;2024-02-21T01:23:37;7.50;99.90
7461;DHT22;6757;52.258;12.840;2024-02-21T01:26:04;7.40;99.90
7461;DHT22;6757;52.258;12.840;2024-02-21T01:28:33;7.50;99.90
7461;DHT22;6757;52.258;12.840;2024-02-21T01:31:01;7.50;99.90
7461;DHT22;6757;52.258;12.840;2024-02-21T01:33:29;7.50;99.90
7461;DHT22;6757;52.258;12.840;2024-02-21T01:36:04;7.50;99.90
7461;DHT22;6757;52.258;12.840;2024-02-21T01:38:33;7.50;99.90
7461;DHT22;6757;52.258;12.840;2024-02-21T01:41:00;7.40;99.90
7461;DHT22;6757;52.258;12.840;2024-02-21T01:43:27;7.40;99.90
7461;DHT22;6757;52.258;12.840;2024-02-21T01:45:55;7.40;99.90
7461;DHT22;6757;52.258;12.840;2024-02-21T01:48:23;7.30;99.90
7461;DHT22;6757;52.258;12.840;2024-02-21T01:50:53;7.30;99.90
7461;DHT22;6757;52.258;12.840;2024-02-21T01:53:29;7.20;99.90
7461;DHT22;6757;52.258;12.840;2024-02-21T01:55:57;7.20;99.90
7461;DHT22;6757;52.258;12.840;2024-02-21T01:58:25;7.20;99.90
7461;DHT22;6757;52.258;12.840;2024-02-21T02:00:54;7.10;99.90
7461;DHT22;6757;52.258;12.840;2024-02-21T02:03:23;7.20;99.90
7461;DHT22;6757;52.258;12.840;2024-02-21T02:05:51;7.10;99.90
7461;DHT22;6757;52.258;12.840;2024-02-21T02:08:19;7.10;99.90
7461;DHT22;6757;52.258;12.840;2024-02-21T02:10:50;7.10;99.90
7461;DHT22;6757;52.258;12.840;2024-02-21T02:13:17;7.10;99.90
7461;DHT22;6757;52.258;12.840;2024-02-21T02:15:46;7.10;99.90
7461;DHT22;6757;52.258;12.840;2024-02-21T02:18:14;7.10;99.90
7461;DHT22;6757;52.258;12.840;2024-02-21T02:20:43;7.10;99.90
7461;DHT22;6757;52.258;12.840;2024-02-21T02:23:19;7.00;99.90
7461;DHT22;6757;52.258;12.840;2024-02-21T02:25:48;7.10;99.90
7461;DHT22;6757;52.258;12.840;2024-02-21T02:28:17;7.00;99.90
7461;DHT22;6757;52.258;12.840;2024-02-21T02:30:45;6.90;99.90
7461;DHT22;6757;52.258;12.840;2024-02-21T02:33:13;7.20;99.90
7461;DHT22;6757;52.258;12.840;2024-02-21T02:35:42;7.00;99.90
7461;DHT22;6757;52.258;12.840;2024-02-21T02:38:10;6.90;99.90
7461;DHT22;6757;52.258;12.840;2024-02-21T02:40:39;7.00;99.90
7461;DHT22;6757;52.258;12.840;2024-02-21T02:43:07;7.10;99.90
7461;DHT22;6757;52.258;12.840;2024-02-21T02:45:34;7.00;99.90
7461;DHT22;6757;52.258;12.840;2024-02-21T02:48:02;7.00;99.90
7461;DHT22;6757;52.258;12.840;2024-02-21T02:50:31;7.00;99.90
7461;DHT22;6757;52.258;12.840;2024-02-21T02:52:58;7.00;99.90
7461;DHT22;6757;52.258;12.840;2024-02-21T02:55:25;7.00;99.90
7461;DHT22;6757;52.258;12.840;2024-02-21T02:57:53;7.00;99.90
7461;DHT22;6757;52.258;12.840;2024-02-21T03:00:22;7.00;99.90
7461;DHT22;6757;52.258;12.840;2024-02-21T03:02:50;6.90;99.90
7461;DHT22;6757;52.258;12.840;2024-02-21T03:05:18;6.90;99.90
7461;DHT22;6757;52.258;12.840;2024-02-21T03:07:46;6.90;99.90
7461;DHT22;6757;52.258;12.840;2024-02-21T03:10:15;6.90;99.90
7461;DHT22;6757;52.258;12.840;2024-02-21T03:12:44;6.80;99.90
7461;DHT22;6757;52.258;12.840;2024-02-21T03:15:13;6.80;99.90
7461;DHT22;6757;52.258;12.840;2024-02-21T03:17:41;6.80;99.90
7461;DHT22;6757;52.258;12.840;2024-02-21T03:20:12;6.80;99.90
7461;DHT22;6757;52.258;12.840;2024-02-21T03:22:39;6.80;99.90
7461;DHT22;6757;52.258;12.840;2024-02-21T03:25:08;6.80;99.90
7461;DHT22;6757;52.258;12.840;2024-02-21T03:27:35;6.70;99.90
7461;DHT22;6757;52.258;12.840;2024-02-21T03:30:02;6.70;99.90
7461;DHT22;6757;52.258;12.840;2024-02-21T03:32:33;6.70;99.90
7461;DHT22;6757;52.258;12.840;2024-02-21T03:35:01;6.70;99.90
7461;DHT22;6757;52.258;12.840;2024-02-21T03:37:29;6.80;99.90
7461;DHT22;6757;52.258;12.840;2024-02-21T03:39:57;6.70;99.90
7461;DHT22;6757;52.258;12.840;2024-02-21T03:42:24;6.70;99.90
7461;DHT22;6757;52.258;12.840;2024-02-21T03:44:51;6.70;99.90
7461;DHT22;6757;52.258;12.840;2024-02-21T03:47:18;6.80;99.90
7461;DHT22;6757;52.258;12.840;2024-02-21T03:49:48;6.70;99.90
7461;DHT22;6757;52.258;12.840;2024-02-21T03:52:15;6.80;99.90
7461;DHT22;6757;52.258;12.840;2024-02-21T03:54:42;6.90;99.90
7461;DHT22;6757;52.258;12.840;2024-02-21T03:57:10;6.60;99.90
7461;DHT22;6757;52.258;12.840;2024-02-21T03:59:36;6.40;99.90
7461;DHT22;6757;52.258;12.840;2024-02-21T04:02:04;6.60;99.90
7461;DHT22;6757;52.258;12.840;2024-02-21T04:04:34;6.60;99.90
7461;DHT22;6757;52.258;12.840;2024-02-21T04:07:04;6.60;99.90
7461;DHT22;6757;52.258;12.840;2024-02-21T04:09:32;6.60;99.90
7461;DHT22;6757;52.258;12.840;2024-02-21T04:12:02;6.60;99.90
7461;DHT22;6757;52.258;12.840;2024-02-21T04:14:29;6.60;99.90
7461;DHT22;6757;52.258;12.840;2024-02-21T04:16:57;6.60;99.90
7461;DHT22;6757;52.258;12.840;2024-02-21T04:19:24;6.60;99.90
7461;DHT22;6757;52.258;12.840;2024-02-21T04:21:51;6.60;99.90
7461;DHT22;6757;52.258;12.840;2024-02-21T04:24:20;6.60;99.90
7461;DHT22;6757;52.258;12.840;2024-02-21T04:26:47;6.30;99.90
7461;DHT22;6757;52.258;12.840;2024-02-21T04:29:15;6.60;99.90
7461;DHT22;6757;52.258;12.840;2024-02-21T04:31:41;6.60;99.90
7461;DHT22;6757;52.258;12.840;2024-02-21T04:34:08;6.80;99.90
7461;DHT22;6757;52.258;12.840;2024-02-21T04:36:36;6.60;99.90
7461;DHT22;6757;52.258;12.840;2024-02-21T04:39:03;6.60;99.90
7461;DHT22;6757;52.258;12.840;2024-02-21T04:41:31;6.60;99.90
7461;DHT22;6757;52.258;12.840;2024-02-21T04:43:58;6.60;99.90
7461;DHT22;6757;52.258;12.840;2024-02-21T04:46:25;6.70;99.90
7461;DHT22;6757;52.258;12.840;2024-02-21T04:48:53;6.60;99.90
7461;DHT22;6757;52.258;12.840;2024-02-21T04:51:20;6.60;99.90
7461;DHT22;6757;52.258;12.840;2024-02-21T04:53:48;6.60;99.90
7461;DHT22;6757;52.258;12.840;2024-02-21T04:56:17;6.70;99.90
7461;DHT22;6757;52.258;12.840;2024-02-21T04:58:45;6.60;99.90
7461;DHT22;6757;52.258;12.840;2024-02-21T05:01:13;6.60;99.90
7461;DHT22;6757;52.258;12.840;2024-02-21T05:03:40;6.50;99.90
7461;DHT22;6757;52.258;12.840;2024-02-21T05:06:07;6.50;99.90
7461;DHT22;6757;52.258;12.840;2024-02-21T05:08:37;6.70;99.90
7461;DHT22;6757;52.258;12.840;2024-02-21T05:11:04;6.50;99.90
7461;DHT22;6757;52.258;12.840;2024-02-21T05:13:32;6.50;99.90
7461;DHT22;6757;52.258;12.840;2024-02-21T05:16:01;6.50;99.90
7461;DHT22;6757;52.258;12.840;2024-02-21T05:18:29;7.90;99.90
7461;DHT22;6757;52.258;12.840;2024-02-21T05:20:56;6.50;99.90
7461;DHT22;6757;52.258;12.840;2024-02-21T05:23:23;6.40;99.90
7461;DHT22;6757;52.258;12.840;2024-02-21T05:25:50;6.50;99.90
7461;DHT22;6757;52.258;12.840;2024-02-21T05:28:18;6.60;99.90
7461;DHT22;6757;52.258;12.840;2024-02-21T05:30:44;6.60;99.90
7461;DHT22;6757;52.258;12.840;2024-02-21T05:33:12;6.60;99.90
7461;DHT22;6757;52.258;12.840;2024-02-21T05:35:46;6.70;99.90
7461;DHT22;6757;52.258;12.840;2024-02-21T05:38:14;6.70;99.90
7461;DHT22;6757;52.258;12.840;2024-02-21T05:40:41;6.70;99.90
7461;DHT22;6757;52.258;12.840;2024-02-21T05:43:08;6.70;99.90
7461;DHT22;6757;52.258;12.840;2024-02-21T05:45:35;6.70;99.90
7461;DHT22;6757;52.258;12.840;2024-02-21T05:48:03;6.70;99.90
7461;DHT22;6757;52.258;12.840;2024-02-21T05:50:31;6.70;99.90
7461;DHT22;6757;52.258;12.840;2024-02-21T05:52:58;6.80;99.90
7461;DHT22;6757;52.258;12.840;2024-02-21T05:55:26;6.80;99.90
7461;DHT22;6757;52.258;12.840;2024-02-21T05:57:53;6.70;99.90
7461;DHT22;6757;52.258;12.840;2024-02-21T06:00:20;6.70;99.90
7461;DHT22;6757;52.258;12.840;2024-02-21T06:02:48;6.70;99.90
7461;DHT22;6757;52.258;12.840;2024-02-21T06:05:16;6.80;99.90
7461;DHT22;6757;52.258;12.840;2024-02-21T06:07:44;6.70;99.90
7461;DHT22;6757;52.258;12.840;2024-02-21T06:10:11;6.70;99.90
7461;DHT22;6757;52.258;12.840;2024-02-21T06:12:38;6.70;99.90
7461;DHT22;6757;52.258;12.840;2024-02-21T06:15:06;6.60;99.90
7461;DHT22;6757;52.258;12.840;2024-02-21T06:17:34;6.70;99.90
7461;DHT22;6757;52.258;12.840;2024-02-21T06:20:05;6.80;99.90
7461;DHT22;6757;52.258;12.840;2024-02-21T06:22:32;6.80;99.90
7461;DHT22;6757;52.258;12.840;2024-02-21T06:25:01;6.70;99.90
7461;DHT22;6757;52.258;12.840;2024-02-21T06:27:28;6.70;99.90
7461;DHT22;6757;52.258;12.840;2024-02-21T06:29:56;6.70;99.90
7461;DHT22;6757;52.258;12.840;2024-02-21T06:32:23;6.60;99.90
7461;DHT22;6757;52.258;12.840;2024-02-21T06:34:50;6.80;99.90
7461;DHT22;6757;52.258;12.840;2024-02-21T06:37:17;6.80;99.90
7461;DHT22;6757;52.258;12.840;2024-02-21T06:39:45;6.80;99.90
7461;DHT22;6757;52.258;12.840;2024-02-21T06:42:14;6.80;99.90
7461;DHT22;6757;52.258;12.840;2024-02-21T06:44:41;6.80;99.90
7461;DHT22;6757;52.258;12.840;2024-02-21T06:47:08;6.70;99.90
7461;DHT22;6757;52.258;12.840;2024-02-21T06:49:35;6.80;99.90
7461;DHT22;6757;52.258;12.840;2024-02-21T06:52:04;6.80;99.90
7461;DHT22;6757;52.258;12.840;2024-02-21T06:54:31;6.70;99.90
7461;DHT22;6757;52.258;12.840;2024-02-21T06:56:58;8.00;99.90
7461;DHT22;6757;52.258;12.840;2024-02-21T06:59:28;6.80;99.90
7461;DHT22;6757;52.258;12.840;2024-02-21T07:01:55;6.80;99.90
7461;DHT22;6757;52.258;12.840;2024-02-21T07:04:23;6.80;99.90
7461;DHT22;6757;52.258;12.840;2024-02-21T07:06:50;6.80;99.90
7461;DHT22;6757;52.258;12.840;2024-02-21T07:09:18;6.80;99.90
7461;DHT22;6757;52.258;12.840;2024-02-21T07:11:47;6.80;99.90
7461;DHT22;6757;52.258;12.840;2024-02-21T07:14:14;6.80;99.90
7461;DHT22;6757;52.258;12.840;2024-02-21T07:16:42;6.90;99.90
7461;DHT22;6757;52.258;12.840;2024-02-21T07:19:10;7.20;99.90
7461;DHT22;6757;52.258;12.840;2024-02-21T07:21:37;6.90;99.90
7461;DHT22;6757;52.258;12.840;2024-02-21T07:24:06;6.90;99.90
7461;DHT22;6757;52.258;12.840;2024-02-21T07:26:33;7.00;99.90
7461;DHT22;6757;52.258;12.840;2024-02-21T07:29:01;7.00;99.90
7461;DHT22;6757;52.258;12.840;2024-02-21T07:31:28;7.00;99.90
7461;DHT22;6757;52.258;12.840;2024-02-21T07:33:58;7.00;99.90
7461;DHT22;6757;52.258;12.840;2024-02-21T07:36:28;7.00;99.90
7461;DHT22;6757;52.258;12.840;2024-02-21T07:38:56;7.00;99.90
7461;DHT22;6757;52.258;12.840;2024-02-21T07:41:22;7.10;99.90
7461;DHT22;6757;52.258;12.840;2024-02-21T07:43:49;6.90;99.90
7461;DHT22;6757;52.258;12.840;2024-02-21T07:46:17;7.20;99.90
7461;DHT22;6757;52.258;12.840;2024-02-21T07:48:45;7.10;99.90
7461;DHT22;6757;52.258;12.840;2024-02-21T07:51:13;7.10;99.90
7461;DHT22;6757;52.258;12.840;2024-02-21T07:53:42;7.10;99.90
7461;DHT22;6757;52.258;12.840;2024-02-21T07:56:11;7.10;99.90
7461;DHT22;6757;52.258;12.840;2024-02-21T07:58:39;7.20;99.90
7461;DHT22;6757;52.258;12.840;2024-02-21T08:01:08;7.10;99.90
7461;DHT22;6757;52.258;12.840;2024-02-21T08:03:35;7.20;99.90
7461;DHT22;6757;52.258;12.840;2024-02-21T08:06:03;7.10;99.90
7461;DHT22;6757;52.258;12.840;2024-02-21T08:08:33;7.20;99.90
7461;DHT22;6757;52.258;12.840;2024-02-21T08:11:00;7.30;99.90
7461;DHT22;6757;52.258;12.840;2024-02-21T08:13:27;7.30;99.90
7461;DHT22;6757;52.258;12.840;2024-02-21T08:15:55;7.10;99.90
7461;DHT22;6757;52.258;12.840;2024-02-21T08:18:23;7.30;99.90
7461;DHT22;6757;52.258;12.840;2024-02-21T08:20:51;7.50;99.90
7461;DHT22;6757;52.258;12.840;2024-02-21T08:23:19;7.50;99.90
7461;DHT22;6757;52.258;12.840;2024-02-21T08:25:47;7.60;99.90
7461;DHT22;6757;52.258;12.840;2024-02-21T08:28:13;7.50;99.90
7461;DHT22;6757;52.258;12.840;2024-02-21T08:30:41;7.60;99.90
7461;DHT22;6757;52.258;12.840;2024-02-21T08:33:13;7.80;99.90
7461;DHT22;6757;52.258;12.840;2024-02-21T08:35:42;7.70;99.90
7461;DHT22;6757;52.258;12.840;2024-02-21T08:38:09;7.80;99.90
7461;DHT22;6757;52.258;12.840;2024-02-21T08:40:37;7.80;99.90
7461;DHT22;6757;52.258;12.840;2024-02-21T08:43:06;7.80;99.90
7461;DHT22;6757;52.258;12.840;2024-02-21T08:45:34;7.60;99.90
7461;DHT22;6757;52.258;12.840;2024-02-21T08:48:01;8.00;99.90
7461;DHT22;6757;52.258;12.840;2024-02-21T08:50:28;8.00;99.90
7461;DHT22;6757;52.258;12.840;2024-02-21T08:52:55;8.10;99.90
7461;DHT22;6757;52.258;12.840;2024-02-21T08:55:23;8.00;99.90
7461;DHT22;6757;52.258;12.840;2024-02-21T08:57:51;8.10;99.90
7461;DHT22;6757;52.258;12.840;2024-02-21T09:00:21;8.00;99.90
7461;DHT22;6757;52.258;12.840;2024-02-21T09:02:52;8.20;99.90
7461;DHT22;6757;52.258;12.840;2024-02-21T09:05:20;8.30;99.90
7461;DHT22;6757;52.258;12.840;2024-02-21T09:07:49;8.40;99.90
7461;DHT22;6757;52.258;12.840;2024-02-21T09:10:17;8.40;99.90
7461;DHT22;6757;52.258;12.840;2024-02-21T09:12:45;8.50;99.90
7461;DHT22;6757;52.258;12.840;2024-02-21T09:15:14;8.60;99.90
7461;DHT22;6757;52.258;12.840;2024-02-21T09:17:43;8.60;99.90
7461;DHT22;6757;52.258;12.840;2024-02-21T09:20:10;8.80;99.90
7461;DHT22;6757;52.258;12.840;2024-02-21T09:22:41;8.80;99.90
7461;DHT22;6757;52.258;12.840;2024-02-21T09:25:08;8.80;99.90
7461;DHT22;6757;52.258;12.840;2024-02-21T09:27:37;8.80;99.90
7461;DHT22;6757;52.258;12.840;2024-02-21T09:30:05;8.90;99.90
7461;DHT22;6757;52.258;12.840;2024-02-21T09:32:33;9.00;99.90
7461;DHT22;6757;52.258;12.840;2024-02-21T09:35:02;9.00;99.90
7461;DHT22;6757;52.258;12.840;2024-02-21T09:37:30;9.10;99.90
7461;DHT22;6757;52.258;12.840;2024-02-21T09:39:57;9.20;99.90
7461;DHT22;6757;52.258;12.840;2024-02-21T09:42:30;9.20;99.90
7461;DHT22;6757;52.258;12.840;2024-02-21T09:45:07;9.30;99.90
7461;DHT22;6757;52.258;12.840;2024-02-21T09:47:43;9.20;99.90
7461;DHT22;6757;52.258;12.840;2024-02-21T09:50:21;9.30;99.90
7461;DHT22;6757;52.258;12.840;2024-02-21T09:52:48;9.40;99.90
7461;DHT22;6757;52.258;12.840;2024-02-21T09:55:18;9.40;99.90
7461;DHT22;6757;52.258;12.840;2024-02-21T09:57:45;9.40;99.90
7461;DHT22;6757;52.258;12.840;2024-02-21T10:00:13;9.40;99.90
7461;DHT22;6757;52.258;12.840;2024-02-21T10:02:47;9.50;99.90
7461;DHT22;6757;52.258;12.840;2024-02-21T10:05:14;9.50;99.90
7461;DHT22;6757;52.258;12.840;2024-02-21T10:07:44;9.50;99.90
7461;DHT22;6757;52.258;12.840;2024-02-21T10:10:11;9.60;99.90
7461;DHT22;6757;52.258;12.840;2024-02-21T10:12:48;9.50;99.90
7461;DHT22;6757;52.258;12.840;2024-02-21T10:15:20;9.40;99.90
7461;DHT22;6757;52.258;12.840;2024-02-21T10:17:49;9.40;99.90
7461;DHT22;6757;52.258;12.840;2024-02-21T10:20:16;9.60;99.90
7461;DHT22;6757;52.258;12.840;2024-02-21T10:22:45;9.50;99.90
7461;DHT22;6757;52.258;12.840;2024-02-21T10:25:13;9.60;99.90
7461;DHT22;6757;52.258;12.840;2024-02-21T10:27:40;9.60;99.90
7461;DHT22;6757;52.258;12.840;2024-02-21T10:30:12;9.60;99.90
7461;DHT22;6757;52.258;12.840;2024-02-21T10:32:49;9.70;99.90
7461;DHT22;6757;52.258;12.840;2024-02-21T10:35:26;9.70;99.90
7461;DHT22;6757;52.258;12.840;2024-02-21T10:37:58;9.70;99.90
7461;DHT22;6757;52.258;12.840;2024-02-21T10:40:26;9.80;99.90
7461;DHT22;6757;52.258;12.840;2024-02-21T10:42:57;9.80;99.90
7461;DHT22;6757;52.258;12.840;2024-02-21T10:45:29;9.90;99.90
7461;DHT22;6757;52.258;12.840;2024-02-21T10:48:06;9.90;99.90
7461;DHT22;6757;52.258;12.840;2024-02-21T10:50:47;10.10;99.90
7461;DHT22;6757;52.258;12.840;2024-02-21T10:53:29;10.10;99.90
7461;DHT22;6757;52.258;12.840;2024-02-21T10:56:10;10.10;99.90
7461;DHT22;6757;52.258;12.840;2024-02-21T10:58:42;10.10;99.90
7461;DHT22;6757;52.258;12.840;2024-02-21T11:01:10;10.20;99.90
7461;DHT22;6757;52.258;12.840;2024-02-21T11:03:40;10.30;99.90
7461;DHT22;6757;52.258;12.840;2024-02-21T11:06:10;10.40;99.90
7461;DHT22;6757;52.258;12.840;2024-02-21T11:08:40;10.50;99.90
7461;DHT22;6757;52.258;12.840;2024-02-21T11:11:07;10.60;99.90
7461;DHT22;6757;52.258;12.840;2024-02-21T11:13:41;10.70;99.90
7461;DHT22;6757;52.258;12.840;2024-02-21T11:16:10;10.70;99.90
7461;DHT22;6757;52.258;12.840;2024-02-21T11:18:38;10.90;99.90
7461;DHT22;6757;52.258;12.840;2024-02-21T11:21:05;10.80;99.90
7461;DHT22;6757;52.258;12.840;2024-02-21T11:23:34;10.80;99.90
7461;DHT22;6757;52.258;12.840;2024-02-21T11:26:07;10.90;99.90
7461;DHT22;6757;52.258;12.840;2024-02-21T11:28:34;10.90;99.90
7461;DHT22;6757;52.258;12.840;2024-02-21T11:31:10;10.90;99.90
7461;DHT22;6757;52.258;12.840;2024-02-21T11:33:39;10.90;99.90
7461;DHT22;6757;52.258;12.840;2024-02-21T11:36:07;10.90;99.90
7461;DHT22;6757;52.258;12.840;2024-02-21T11:38:36;10.90;99.90
7461;DHT22;6757;52.258;12.840;2024-02-21T11:41:09;10.90;99.90
7461;DHT22;6757;52.258;12.840;2024-02-21T11:43:37;10.90;99.90
7461;DHT22;6757;52.258;12.840;2024-02-21T11:46:04;10.90;99.90
7461;DHT22;6757;52.258;12.840;2024-02-21T11:48:32;10.90;99.90
7461;DHT22;6757;52.258;12.840;2024-02-21T11:50:59;10.80;99.90
7461;DHT22;6757;52.258;12.840;2024-02-21T11:53:26;11.00;99.90
7461;DHT22;6757;52.258;12.840;2024-02-21T11:55:56;11.00;99.90
7461;DHT22;6757;52.258;12.840;2024-02-21T11:58:25;11.10;99.90
7461;DHT22;6757;52.258;12.840;2024-02-21T12:00:52;11.00;99.90
7461;DHT22;6757;52.258;12.840;2024-02-21T12:03:19;11.30;99.90
7461;DHT22;6757;52.258;12.840;2024-02-21T12:05:46;11.40;99.90
7461;DHT22;6757;52.258;12.840;2024-02-21T12:08:13;11.50;99.90
7461;DHT22;6757;52.258;12.840;2024-02-21T12:10:42;11.40;99.90
7461;DHT22;6757;52.258;12.840;2024-02-21T12:13:09;11.50;99.90
7461;DHT22;6757;52.258;12.840;2024-02-21T12:15:40;11.60;99.90
7461;DHT22;6757;52.258;12.840;2024-02-21T12:18:07;11.60;99.90
7461;DHT22;6757;52.258;12.840;2024-02-21T12:20:35;11.50;99.90
7461;DHT22;6757;52.258;12.840;2024-02-21T12:23:03;11.40;99.90
7461;DHT22;6757;52.258;12.840;2024-02-21T12:25:30;11.40;99.90
7461;DHT22;6757;52.258;12.840;2024-02-21T12:27:59;11.10;99.90
7461;DHT22;6757;52.258;12.840;2024-02-21T12:30:26;11.30;99.90
7461;DHT22;6757;52.258;12.840;2024-02-21T12:32:55;11.20;99.90
7461;DHT22;6757;52.258;12.840;2024-02-21T12:35:23;11.20;99.90
7461;DHT22;6757;52.258;12.840;2024-02-21T12:37:52;11.20;99.90
7461;DHT22;6757;52.258;12.840;2024-02-21T12:40:19;11.20;99.90
7461;DHT22;6757;52.258;12.840;2024-02-21T12:42:46;11.20;99.90
7461;DHT22;6757;52.258;12.840;2024-02-21T12:45:14;11.40;99.90
7461;DHT22;6757;52.258;12.840;2024-02-21T12:47:42;11.40;99.90
7461;DHT22;6757;52.258;12.840;2024-02-21T12:50:11;11.40;99.90
7461;DHT22;6757;52.258;12.840;2024-02-21T12:52:40;11.50;99.90
7461;DHT22;6757;52.258;12.840;2024-02-21T12:55:08;11.50;99.90
7461;DHT22;6757;52.258;12.840;2024-02-21T12:57:37;11.60;99.90
7461;DHT22;6757;52.258;12.840;2024-02-21T13:00:06;11.70;99.90
7461;DHT22;6757;52.258;12.840;2024-02-21T13:02:34;11.90;99.90
7461;DHT22;6757;52.258;12.840;2024-02-21T13:05:02;12.10;99.90
7461;DHT22;6757;52.258;12.840;2024-02-21T13:07:32;12.10;99.90
7461;DHT22;6757;52.258;12.840;2024-02-21T13:09:59;12.10;99.90
7461;DHT22;6757;52.258;12.840;2024-02-21T13:12:28;12.20;99.90
7461;DHT22;6757;52.258;12.840;2024-02-21T13:14:56;12.30;99.90
7461;DHT22;6757;52.258;12.840;2024-02-21T13:17:23;12.40;99.90
7461;DHT22;6757;52.258;12.840;2024-02-21T13:19:55;12.40;99.90
7461;DHT22;6757;52.258;12.840;2024-02-21T13:22:22;12.30;99.90
7461;DHT22;6757;52.258;12.840;2024-02-21T13:24:53;12.30;99.90
7461;DHT22;6757;52.258;12.840;2024-02-21T13:27:19;12.30;99.90
7461;DHT22;6757;52.258;12.840;2024-02-21T13:29:47;12.20;99.90
7461;DHT22;6757;52.258;12.840;2024-02-21T13:32:14;12.10;99.90
7461;DHT22;6757;52.258;12.840;2024-02-21T13:34:41;12.00;99.90
7461;DHT22;6757;52.258;12.840;2024-02-21T13:37:08;11.80;99.90
7461;DHT22;6757;52.258;12.840;2024-02-21T13:39:35;11.90;99.90
7461;DHT22;6757;52.258;12.840;2024-02-21T13:42:04;11.80;99.90
7461;DHT22;6757;52.258;12.840;2024-02-21T13:44:31;11.80;99.90
7461;DHT22;6757;52.258;12.840;2024-02-21T13:46:58;11.70;99.90
7461;DHT22;6757;52.258;12.840;2024-02-21T13:49:25;11.70;99.90
7461;DHT22;6757;52.258;12.840;2024-02-21T13:51:54;11.40;99.90
7461;DHT22;6757;52.258;12.840;2024-02-21T13:54:21;11.50;99.90
7461;DHT22;6757;52.258;12.840;2024-02-21T13:56:48;11.50;99.90
7461;DHT22;6757;52.258;12.840;2024-02-21T13:59:17;11.40;99.90
7461;DHT22;6757;52.258;12.840;2024-02-21T14:01:44;11.50;99.90
7461;DHT22;6757;52.258;12.840;2024-02-21T14:04:11;11.50;99.90
7461;DHT22;6757;52.258;12.840;2024-02-21T14:06:38;11.50;99.90
7461;DHT22;6757;52.258;12.840;2024-02-21T14:09:08;11.50;99.90
7461;DHT22;6757;52.258;12.840;2024-02-21T14:11:36;11.50;99.90
7461;DHT22;6757;52.258;12.840;2024-02-21T14:14:06;11.60;99.90
7461;DHT22;6757;52.258;12.840;2024-02-21T14:16:34;11.50;99.90
7461;DHT22;6757;52.258;12.840;2024-02-21T14:19:02;11.50;99.90
7461;DHT22;6757;52.258;12.840;2024-02-21T14:21:30;11.50;99.90
7461;DHT22;6757;52.258;12.840;2024-02-21T14:23:56;11.40;99.90
7461;DHT22;6757;52.258;12.840;2024-02-21T14:26:26;11.40;99.90
7461;DHT22;6757;52.258;12.840;2024-02-21T14:28:55;11.40;99.90
7461;DHT22;6757;52.258;12.840;2024-02-21T14:31:23;11.40;99.90
7461;DHT22;6757;52.258;12.840;2024-02-21T14:33:52;11.40;99.90
7461;DHT22;6757;52.258;12.840;2024-02-21T14:36:20;11.30;99.90
7461;DHT22;6757;52.258;12.840;2024-02-21T14:38:49;11.50;99.90
7461;DHT22;6757;52.258;12.840;2024-02-21T14:41:17;11.40;99.90
7461;DHT22;6757;52.258;12.840;2024-02-21T14:43:44;11.60;99.90
7461;DHT22;6757;52.258;12.840;2024-02-21T14:46:12;11.60;99.90
7461;DHT22;6757;52.258;12.840;2024-02-21T14:48:38;11.60;99.90
7461;DHT22;6757;52.258;12.840;2024-02-21T14:51:08;11.60;99.90
7461;DHT22;6757;52.258;12.840;2024-02-21T14:53:35;11.70;99.90
7461;DHT22;6757;52.258;12.840;2024-02-21T14:56:05;11.80;99.90
7461;DHT22;6757;52.258;12.840;2024-02-21T14:58:33;11.90;99.90
7461;DHT22;6757;52.258;12.840;2024-02-21T15:01:00;11.90;99.90
7461;DHT22;6757;52.258;12.840;2024-02-21T15:03:28;12.00;99.90
7461;DHT22;6757;52.258;12.840;2024-02-21T15:05:56;11.90;99.90
7461;DHT22;6757;52.258;12.840;2024-02-21T15:08:26;11.90;99.90
7461;DHT22;6757;52.258;12.840;2024-02-21T15:10:57;11.80;99.90
7461;DHT22;6757;52.258;12.840;2024-02-21T15:13:24;11.70;99.90
7461;DHT22;6757;52.258;12.840;2024-02-21T15:15:52;11.70;99.90
7461;DHT22;6757;52.258;12.840;2024-02-21T15:18:23;11.50;99.90
7461;DHT22;6757;52.258;12.840;2024-02-21T15:20:53;11.60;99.90
7461;DHT22;6757;52.258;12.840;2024-02-21T15:23:20;11.70;99.90
7461;DHT22;6757;52.258;12.840;2024-02-21T15:25:50;11.70;99.90
7461;DHT22;6757;52.258;12.840;2024-02-21T15:28:18;11.70;99.90
7461;DHT22;6757;52.258;12.840;2024-02-21T15:30:45;11.60;99.90
7461;DHT22;6757;52.258;12.840;2024-02-21T15:33:13;11.60;99.90
7461;DHT22;6757;52.258;12.840;2024-02-21T15:35:40;11.40;99.90
7461;DHT22;6757;52.258;12.840;2024-02-21T15:38:07;11.40;99.90
7461;DHT22;6757;52.258;12.840;2024-02-21T15:40:34;11.30;99.90
7461;DHT22;6757;52.258;12.840;2024-02-21T15:43:03;11.10;99.90
7461;DHT22;6757;52.258;12.840;2024-02-21T15:45:31;11.00;99.90
7461;DHT22;6757;52.258;12.840;2024-02-21T15:47:58;10.90;99.90
7461;DHT22;6757;52.258;12.840;2024-02-21T15:50:25;10.90;99.90
7461;DHT22;6757;52.258;12.840;2024-02-21T15:52:54;10.80;99.90
7461;DHT22;6757;52.258;12.840;2024-02-21T15:55:21;10.80;99.90
7461;DHT22;6757;52.258;12.840;2024-02-21T15:57:49;10.70;99.90
7461;DHT22;6757;52.258;12.840;2024-02-21T16:00:19;10.70;99.90
7461;DHT22;6757;52.258;12.840;2024-02-21T16:02:47;10.50;99.90
7461;DHT22;6757;52.258;12.840;2024-02-21T16:05:14;10.40;99.90